Time;durP1;ratioP1;P1;durP2;ratioP2;P2;SDS_P1;SDS_P2;PMS_P1;PMS_P2;Temp;Humidity;BMP_temperature;BMP_pressure;BME280_temperature;BME280_humidity;BME280_pressure;Samples;Min_cycle;Max_cycle;Signal;HPM_P1;HPM_P2
2022/07/03 00:01:21;;;;;;;14.07;5.47;;;;;;;;;;5051650;28;20025;-74
2022/07/03 00:03:47;;;;;;;6.82;5.20;;;;;;;;;;5064325;28;20382;-75
2022/07/03 00:06:13;;;;;;;6.53;4.53;;;;;;;;;;5071682;28;20037;-77
2022/07/03 00:08:38;;;;;;;15.07;5.35;;;;;;;;;;5058206;28;20041;-77
2022/07/03 00:11:08;;;;;;;8.63;4.97;;;;;;;;;;5067637;28;20020;-76
2022/07/03 00:13:34;;;;;;;7.78;5.00;;;;;;;;;;5068289;28;20043;-76
2022/07/03 00:16:00;;;;;;;10.50;4.85;;;;;;;;;;5066674;28;20036;-76
2022/07/03 00:18:27;;;;;;;8.90;5.20;;;;;;;;;;5071551;28;20090;-77
2022/07/03 00:21:01;;;;;;;8.63;4.95;;;;;;;;;;5071381;28;20079;-76
2022/07/03 00:23:30;;;;;;;10.07;5.35;;;;;;;;;;5070789;28;20033;-76
2022/07/03 00:26:01;;;;;;;7.63;4.97;;;;;;;;;;5071520;28;20110;-77
2022/07/03 00:28:29;;;;;;;9.32;5.28;;;;;;;;;;5071005;28;20268;-76
2022/07/03 00:30:56;;;;;;;6.18;4.80;;;;;;;;;;5071234;28;20032;-74
2022/07/03 00:33:26;;;;;;;10.68;5.03;;;;;;;;;;5070354;28;20044;-76
2022/07/03 00:35:55;;;;;;;8.10;5.03;;;;;;;;;;5069982;28;20068;-76
2022/07/03 00:38:22;;;;;;;6.07;4.70;;;;;;;;;;5070626;28;20024;-77
2022/07/03 00:40:48;;;;;;;8.40;5.07;;;;;;;;;;5071241;28;20090;-76
2022/07/03 00:43:17;;;;;;;6.80;4.97;;;;;;;;;;5070738;28;20433;-75
2022/07/03 00:45:50;;;;;;;7.95;4.63;;;;;;;;;;5071631;28;20040;-75
2022/07/03 00:48:17;;;;;;;8.55;4.90;;;;;;;;;;5071422;28;20036;-77
2022/07/03 00:50:51;;;;;;;8.65;5.18;;;;;;;;;;5071052;28;20529;-76
2022/07/03 00:53:28;;;;;;;9.30;5.30;;;;;;;;;;5070795;28;20036;-75
2022/07/03 00:55:55;;;;;;;7.03;5.15;;;;;;;;;;5071009;28;20037;-75
2022/07/03 00:58:22;;;;;;;8.30;4.93;;;;;;;;;;5071174;28;20024;-74
2022/07/03 01:00:51;;;;;;;9.48;4.97;;;;;;;;;;5071297;28;20041;-75
2022/07/03 01:03:19;;;;;;;8.73;4.60;;;;;;;;;;5070943;28;20039;-75
2022/07/03 01:05:51;;;;;;;8.95;4.60;;;;;;;;;;5070876;28;20040;-75
2022/07/03 01:08:38;;;;;;;6.75;4.93;;;;;;;;;;5071246;28;20036;-76
2022/07/03 01:11:22;;;;;;;7.38;4.90;;;;;;;;;;5070751;28;20032;-75
2022/07/03 01:14:17;;;;;;;7.03;4.68;;;;;;;;;;5071536;28;20479;-74
2022/07/03 01:16:57;;;;;;;8.90;4.80;;;;;;;;;;5070405;28;20063;-76
2022/07/03 01:19:35;;;;;;;10.05;4.60;;;;;;;;;;5070900;28;20060;-79
2022/07/03 01:22:25;;;;;;;9.98;4.85;;;;;;;;;;5070801;28;20406;-79
2022/07/03 01:25:10;;;;;;;10.90;5.43;;;;;;;;;;5070829;28;20043;-74
2022/07/03 01:27:58;;;;;;;11.65;5.60;;;;;;;;;;5070678;28;20140;-76
2022/07/03 01:30:25;;;;;;;8.27;5.85;;;;;;;;;;5069984;28;20041;-75
2022/07/03 01:33:01;;;;;;;9.52;5.60;;;;;;;;;;5071098;28;20470;-76
2022/07/03 01:35:38;;;;;;;7.97;5.53;;;;;;;;;;5070008;28;20059;-76
2022/07/03 01:38:10;;;;;;;11.57;5.85;;;;;;;;;;5071148;28;20024;-74
2022/07/03 01:40:38;;;;;;;9.35;6.20;;;;;;;;;;5070059;28;20039;-76
2022/07/03 01:43:08;;;;;;;7.32;5.90;;;;;;;;;;5070573;28;20029;-76
2022/07/03 01:45:38;;;;;;;7.78;5.07;;;;;;;;;;5069845;28;20085;-75
2022/07/03 01:48:06;;;;;;;7.30;5.22;;;;;;;;;;5071018;28;20033;-76
2022/07/03 01:50:33;;;;;;;7.80;5.50;;;;;;;;;;5070745;28;20143;-78
2022/07/03 01:53:03;;;;;;;11.10;5.38;;;;;;;;;;5070702;28;20032;-75
2022/07/03 01:55:32;;;;;;;13.40;6.20;;;;;;;;;;5070511;28;20052;-75
2022/07/03 01:57:58;;;;;;;9.27;5.70;;;;;;;;;;5060848;28;20027;-76
2022/07/03 02:00:24;;;;;;;10.43;5.88;;;;;;;;;;5050016;28;20033;-75
2022/07/03 02:03:00;;;;;;;10.77;5.70;;;;;;;;;;5051894;28;20040;-76
2022/07/03 02:05:41;;;;;;;11.05;6.10;;;;;;;;;;5054057;28;20514;-75
2022/07/03 02:08:29;;;;;;;11.18;5.80;;;;;;;;;;5054130;28;20090;-77
2022/07/03 02:11:25;;;;;;;12.70;6.18;;;;;;;;;;5054182;28;20037;-74
2022/07/03 02:13:55;;;;;;;10.93;5.60;;;;;;;;;;5052918;28;20049;-75
2022/07/03 02:16:24;;;;;;;8.05;6.05;;;;;;;;;;5054538;28;20033;-77
2022/07/03 02:18:58;;;;;;;10.32;5.50;;;;;;;;;;5053554;28;20086;-75
2022/07/03 02:21:29;;;;;;;10.00;5.68;;;;;;;;;;5053754;28;20045;-76
2022/07/03 02:23:57;;;;;;;6.72;4.97;;;;;;;;;;5053831;28;20086;-76
2022/07/03 02:26:38;;;;;;;9.73;5.68;;;;;;;;;;5053803;28;20036;-76
2022/07/03 02:29:07;;;;;;;7.43;5.68;;;;;;;;;;5053712;28;20066;-76
2022/07/03 02:31:56;;;;;;;9.48;5.20;;;;;;;;;;5053858;28;20103;-76
2022/07/03 02:34:24;;;;;;;8.30;5.32;;;;;;;;;;5053782;28;20037;-77
2022/07/03 02:36:55;;;;;;;10.57;5.32;;;;;;;;;;5053852;28;20072;-74
2022/07/03 02:39:52;;;;;;;10.90;4.80;;;;;;;;;;5053214;28;20103;-77
2022/07/03 02:42:47;;;;;;;6.95;5.40;;;;;;;;;;5039659;28;20453;-74
2022/07/03 02:45:13;;;;;;;9.25;5.55;;;;;;;;;;5053674;28;20112;-74
2022/07/03 02:47:55;;;;;;;8.50;5.20;;;;;;;;;;5053262;28;20021;-75
2022/07/03 02:50:22;;;;;;;9.97;5.20;;;;;;;;;;5053267;28;20041;-73
2022/07/03 02:52:58;;;;;;;6.40;4.65;;;;;;;;;;5052938;28;20017;-76
2022/07/03 02:55:43;;;;;;;6.70;4.70;;;;;;;;;;5053054;28;20037;-75
2022/07/03 02:58:27;;;;;;;5.80;4.63;;;;;;;;;;5052835;28;20446;-75
2022/07/03 03:00:58;;;;;;;6.72;4.90;;;;;;;;;;5052467;28;20044;-75
2022/07/03 03:03:30;;;;;;;10.15;4.65;;;;;;;;;;5053555;28;20484;-76
2022/07/03 03:06:04;;;;;;;6.72;4.78;;;;;;;;;;5052861;28;20044;-78
2022/07/03 03:08:49;;;;;;;8.23;4.13;;;;;;;;;;5053646;28;20029;-74
2022/07/03 03:11:29;;;;;;;6.40;4.72;;;;;;;;;;5052676;28;20108;-78
2022/07/03 03:13:57;;;;;;;7.72;4.95;;;;;;;;;;5051848;28;20028;-75
2022/07/03 03:16:23;;;;;;;8.23;4.53;;;;;;;;;;5052852;28;20025;-75
2022/07/03 03:18:49;;;;;;;10.23;4.78;;;;;;;;;;5053026;28;20036;-76
2022/07/03 03:21:19;;;;;;;6.82;4.50;;;;;;;;;;5052432;28;20048;-76
2022/07/03 03:23:52;;;;;;;9.13;4.68;;;;;;;;;;5052476;28;20091;-75
2022/07/03 03:26:22;;;;;;;7.75;4.97;;;;;;;;;;5052404;28;20041;-75
2022/07/03 03:28:50;;;;;;;11.82;5.05;;;;;;;;;;5052632;28;20387;-76
2022/07/03 03:31:16;;;;;;;8.00;4.40;;;;;;;;;;5052245;28;20148;-75
2022/07/03 03:33:44;;;;;;;8.93;5.15;;;;;;;;;;5051433;28;20116;-78
2022/07/03 03:36:11;;;;;;;8.05;4.80;;;;;;;;;;5052064;28;20104;-76
2022/07/03 03:38:38;;;;;;;8.95;4.63;;;;;;;;;;5052612;28;20037;-78
2022/07/03 03:41:05;;;;;;;8.85;4.90;;;;;;;;;;5052641;28;20021;-77
2022/07/03 03:43:32;;;;;;;7.60;4.47;;;;;;;;;;5052537;28;20096;-78
2022/07/03 03:45:59;;;;;;;5.63;4.43;;;;;;;;;;5052236;28;20039;-77
2022/07/03 03:48:27;;;;;;;6.07;4.57;;;;;;;;;;5052309;28;20033;-78
2022/07/03 03:50:53;;;;;;;9.98;4.82;;;;;;;;;;5052410;28;20047;-77
2022/07/03 03:53:19;;;;;;;6.43;4.28;;;;;;;;;;5052995;28;20033;-78
2022/07/03 03:56:03;;;;;;;7.22;4.75;;;;;;;;;;5052787;28;20023;-78
2022/07/03 03:58:31;;;;;;;7.00;4.50;;;;;;;;;;5052584;28;20120;-77
2022/07/03 04:00:59;;;;;;;7.28;4.07;;;;;;;;;;5052543;28;20017;-78
2022/07/03 04:03:25;;;;;;;8.13;4.72;;;;;;;;;;5052343;28;20029;-78
2022/07/03 04:05:52;;;;;;;7.15;5.05;;;;;;;;;;5053714;28;20144;-78
2022/07/03 04:08:19;;;;;;;6.72;3.72;;;;;;;;;;5053898;28;20436;-76
2022/07/03 04:10:45;;;;;;;6.15;3.75;;;;;;;;;;5053659;28;20032;-76
2022/07/03 04:13:11;;;;;;;6.50;4.07;;;;;;;;;;5054022;28;20084;-76
2022/07/03 04:15:37;;;;;;;5.97;3.88;;;;;;;;;;5053687;28;20489;-76
2022/07/03 04:18:04;;;;;;;8.48;4.15;;;;;;;;;;5054002;28;20040;-77
2022/07/03 04:20:30;;;;;;;5.47;3.50;;;;;;;;;;5053378;28;20100;-77
2022/07/03 04:22:57;;;;;;;10.57;3.72;;;;;;;;;;5053430;28;20408;-78
2022/07/03 04:25:23;;;;;;;9.48;4.20;;;;;;;;;;5053176;28;20045;-78
2022/07/03 04:27:49;;;;;;;9.35;3.80;;;;;;;;;;5059114;28;20036;-78
2022/07/03 04:30:15;;;;;;;8.07;3.90;;;;;;;;;;5058771;28;20029;-77
2022/07/03 04:32:41;;;;;;;7.05;3.63;;;;;;;;;;5053671;28;20027;-78
2022/07/03 04:35:07;;;;;;;12.57;4.10;;;;;;;;;;5053764;28;20017;-78
2022/07/03 04:37:33;;;;;;;10.55;4.13;;;;;;;;;;5053428;28;20036;-78
2022/07/03 04:39:59;;;;;;;7.18;3.75;;;;;;;;;;5052960;28;20028;-77
2022/07/03 04:42:25;;;;;;;8.10;4.00;;;;;;;;;;5053065;28;20449;-75
2022/07/03 04:44:51;;;;;;;8.10;4.13;;;;;;;;;;5053186;28;20025;-77
2022/07/03 04:47:17;;;;;;;4.95;3.70;;;;;;;;;;5053062;28;20163;-77
2022/07/03 04:49:42;;;;;;;5.55;3.60;;;;;;;;;;5052634;28;20108;-76
2022/07/03 04:52:09;;;;;;;11.95;3.80;;;;;;;;;;5053039;28;20122;-78
2022/07/03 04:54:35;;;;;;;7.05;3.60;;;;;;;;;;5053135;28;20025;-75
2022/07/03 04:57:01;;;;;;;8.93;3.80;;;;;;;;;;5052850;28;20033;-76
2022/07/03 04:59:27;;;;;;;6.63;3.60;;;;;;;;;;5052430;28;20056;-77
2022/07/03 05:01:53;;;;;;;9.65;3.63;;;;;;;;;;5061411;28;20133;-77
2022/07/03 05:04:19;;;;;;;11.90;3.83;;;;;;;;;;5073022;28;20025;-74
2022/07/03 05:06:45;;;;;;;8.65;3.80;;;;;;;;;;5072898;28;20063;-77
2022/07/03 05:09:11;;;;;;;9.00;3.97;;;;;;;;;;5072947;28;20037;-76
2022/07/03 05:11:37;;;;;;;9.55;3.30;;;;;;;;;;5073447;28;20101;-73
2022/07/03 05:14:03;;;;;;;6.63;3.60;;;;;;;;;;5073078;28;20451;-77
2022/07/03 05:16:30;;;;;;;7.05;3.60;;;;;;;;;;5072848;28;20474;-75
2022/07/03 05:18:56;;;;;;;10.27;3.65;;;;;;;;;;5072912;28;20078;-75
2022/07/03 05:21:22;;;;;;;7.10;3.80;;;;;;;;;;5072601;28;20045;-76
2022/07/03 05:23:48;;;;;;;8.80;3.60;;;;;;;;;;5072460;28;20029;-73
2022/07/03 05:26:14;;;;;;;7.80;3.67;;;;;;;;;;5063233;28;20033;-76
2022/07/03 05:28:40;;;;;;;6.13;3.55;;;;;;;;;;5053620;28;20048;-77
2022/07/03 05:31:06;;;;;;;8.18;3.67;;;;;;;;;;5052756;28;20111;-75
2022/07/03 05:33:32;;;;;;;11.32;3.90;;;;;;;;;;5052800;28;20036;-79
2022/07/03 05:35:59;;;;;;;11.40;3.97;;;;;;;;;;5052912;28;20037;-77
2022/07/03 05:41:10;;;;;;;10.32;4.13;;;;;;;;;;5056602;28;20420;-78
2022/07/03 05:43:36;;;;;;;9.10;3.60;;;;;;;;;;5056633;28;20475;-75
2022/07/03 05:46:03;;;;;;;9.95;3.60;;;;;;;;;;5056462;28;20043;-74
2022/07/03 05:48:29;;;;;;;6.93;3.63;;;;;;;;;;5056578;28;20475;-77
2022/07/03 05:50:55;;;;;;;8.30;3.70;;;;;;;;;;5056305;28;20047;-72
2022/07/03 05:53:21;;;;;;;6.75;3.85;;;;;;;;;;5056518;28;20021;-76
2022/07/03 05:55:47;;;;;;;7.95;3.90;;;;;;;;;;5056513;28;20033;-77
2022/07/03 05:58:13;;;;;;;9.18;4.20;;;;;;;;;;5056442;28;20025;-76
2022/07/03 06:00:40;;;;;;;9.35;4.35;;;;;;;;;;5067110;28;20479;-73
2022/07/03 06:03:06;;;;;;;5.97;3.28;;;;;;;;;;5076086;28;20529;-76
2022/07/03 06:05:32;;;;;;;15.70;4.10;;;;;;;;;;5075905;28;20045;-77
2022/07/03 06:07:58;;;;;;;7.30;3.58;;;;;;;;;;5065152;28;20036;-74
2022/07/03 06:10:25;;;;;;;6.35;3.78;;;;;;;;;;5055912;28;20025;-75
2022/07/03 06:12:51;;;;;;;9.70;4.15;;;;;;;;;;5056077;28;20052;-75
2022/07/03 06:15:17;;;;;;;12.25;4.07;;;;;;;;;;5056194;28;20574;-74
2022/07/03 06:17:43;;;;;;;6.85;3.75;;;;;;;;;;5055785;28;20491;-74
2022/07/03 06:20:10;;;;;;;10.32;3.78;;;;;;;;;;5055293;28;20040;-75
2022/07/03 06:22:36;;;;;;;7.90;3.78;;;;;;;;;;5055465;28;20051;-73
2022/07/03 06:25:02;;;;;;;8.82;3.70;;;;;;;;;;5055496;28;20052;-73
2022/07/03 06:27:28;;;;;;;7.35;3.47;;;;;;;;;;5055336;28;20017;-73
2022/07/03 06:29:54;;;;;;;7.82;4.22;;;;;;;;;;5055322;28;20108;-74
2022/07/03 06:32:20;;;;;;;10.05;4.07;;;;;;;;;;5055658;28;20032;-76
2022/07/03 06:34:46;;;;;;;12.05;4.25;;;;;;;;;;5055398;28;20123;-77
2022/07/03 06:37:12;;;;;;;7.53;3.65;;;;;;;;;;5055411;28;20028;-75
2022/07/03 06:39:38;;;;;;;8.38;3.95;;;;;;;;;;5055538;28;20051;-76
2022/07/03 06:42:04;;;;;;;9.88;3.90;;;;;;;;;;5055505;28;20055;-75
2022/07/03 06:44:31;;;;;;;7.32;3.90;;;;;;;;;;5055202;28;20029;-74
2022/07/03 06:46:56;;;;;;;7.20;3.63;;;;;;;;;;5055317;28;20025;-76
2022/07/03 06:49:23;;;;;;;6.78;3.47;;;;;;;;;;5055222;28;20025;-78
2022/07/03 06:51:49;;;;;;;7.70;3.70;;;;;;;;;;5055329;28;20511;-77
2022/07/03 06:54:15;;;;;;;8.23;3.67;;;;;;;;;;5055028;28;20033;-73
2022/07/03 06:56:42;;;;;;;7.95;3.35;;;;;;;;;;5053668;28;20033;-73
2022/07/03 06:59:08;;;;;;;5.03;3.22;;;;;;;;;;5055110;28;20033;-74
2022/07/03 07:01:34;;;;;;;6.07;3.40;;;;;;;;;;5054961;28;20392;-76
2022/07/03 07:04:01;;;;;;;5.78;2.97;;;;;;;;;;5055081;28;20036;-75
2022/07/03 07:06:27;;;;;;;6.72;3.35;;;;;;;;;;5054774;28;20041;-76
2022/07/03 07:08:53;;;;;;;8.75;2.97;;;;;;;;;;5054770;28;20150;-74
2022/07/03 07:11:19;;;;;;;7.60;3.20;;;;;;;;;;5057055;28;20391;-75
2022/07/03 07:13:45;;;;;;;6.50;2.95;;;;;;;;;;5063147;28;20041;-74
2022/07/03 07:16:11;;;;;;;6.65;3.10;;;;;;;;;;5054595;28;20104;-75
2022/07/03 07:18:39;;;;;;;5.20;3.67;;;;;;;;;;5054513;28;20107;-75
2022/07/03 07:21:05;;;;;;;8.48;3.40;;;;;;;;;;5054006;28;20082;-76
2022/07/03 07:23:31;;;;;;;8.98;3.45;;;;;;;;;;5054380;28;20487;-73
2022/07/03 07:25:56;;;;;;;7.18;3.42;;;;;;;;;;5054397;28;20106;-73
2022/07/03 07:28:22;;;;;;;5.95;3.53;;;;;;;;;;5056211;28;20037;-77
2022/07/03 07:30:48;;;;;;;6.40;3.25;;;;;;;;;;5055109;28;20430;-76
2022/07/03 07:33:14;;;;;;;6.13;3.20;;;;;;;;;;5062869;28;20039;-77
2022/07/03 07:35:39;;;;;;;6.95;3.42;;;;;;;;;;5069352;28;20394;-74
2022/07/03 07:38:05;;;;;;;9.20;3.65;;;;;;;;;;5074521;28;20471;-78
2022/07/03 07:40:31;;;;;;;4.82;3.25;;;;;;;;;;5074431;28;20025;-74
2022/07/03 07:42:57;;;;;;;7.03;3.40;;;;;;;;;;5074251;28;20032;-77
2022/07/03 07:45:23;;;;;;;6.93;3.20;;;;;;;;;;5074000;28;20115;-78
2022/07/03 07:47:49;;;;;;;5.05;3.05;;;;;;;;;;5067376;28;20067;-76
2022/07/03 07:50:14;;;;;;;6.55;3.50;;;;;;;;;;5053086;28;20033;-76
2022/07/03 07:52:40;;;;;;;7.07;3.45;;;;;;;;;;5053495;28;20082;-76
2022/07/03 07:55:07;;;;;;;7.88;3.33;;;;;;;;;;5053749;28;20074;-79
2022/07/03 07:57:37;;;;;;;7.40;3.47;;;;;;;;;;5053581;28;20079;-79
2022/07/03 08:00:07;;;;;;;6.63;3.17;;;;;;;;;;5058013;28;20035;-78
2022/07/03 08:05:37;;;;;;;6.85;3.15;;;;;;;;;;5072841;28;20024;-77
2022/07/03 08:08:17;;;;;;;6.47;2.92;;;;;;;;;;5073124;28;20051;-77
2022/07/03 08:10:45;;;;;;;7.60;3.08;;;;;;;;;;5072800;28;20035;-76
2022/07/03 08:13:12;;;;;;;6.00;2.78;;;;;;;;;;5072483;28;20382;-75
2022/07/03 08:15:39;;;;;;;4.72;3.03;;;;;;;;;;5072716;28;20126;-77
2022/07/03 08:18:05;;;;;;;4.45;2.67;;;;;;;;;;5072809;28;20016;-75
2022/07/03 08:20:32;;;;;;;8.30;3.10;;;;;;;;;;5072826;28;20036;-76
2022/07/03 08:22:58;;;;;;;6.35;2.80;;;;;;;;;;5073069;28;20041;-76
2022/07/03 08:25:25;;;;;;;6.53;2.60;;;;;;;;;;5072133;28;20029;-76
2022/07/03 08:27:50;;;;;;;3.88;2.70;;;;;;;;;;5072735;28;20056;-79
2022/07/03 08:30:17;;;;;;;3.97;2.70;;;;;;;;;;5072505;28;20087;-76
2022/07/03 08:32:48;;;;;;;3.90;2.70;;;;;;;;;;5072532;28;20028;-75
2022/07/03 08:35:14;;;;;;;3.35;2.63;;;;;;;;;;5072840;28;20044;-74
2022/07/03 08:37:40;;;;;;;4.90;2.75;;;;;;;;;;5072024;28;20047;-76
2022/07/03 08:40:08;;;;;;;4.32;2.38;;;;;;;;;;5072421;28;20037;-74
2022/07/03 08:42:38;;;;;;;3.30;2.50;;;;;;;;;;5072646;28;20031;-76
2022/07/03 08:45:06;;;;;;;4.68;2.30;;;;;;;;;;5072255;28;20161;-75
2022/07/03 08:47:33;;;;;;;4.93;2.65;;;;;;;;;;5070335;28;20016;-76
2022/07/03 08:50:01;;;;;;;4.53;2.42;;;;;;;;;;5069813;28;20043;-74
2022/07/03 08:57:47;;;;;;;2.95;2.60;;;;;;;;;;5003349;28;20129;-79
2022/07/03 09:00:15;;;;;;;3.40;2.35;;;;;;;;;;5000966;28;20034;-77
2022/07/03 09:02:44;;;;;;;5.95;2.13;;;;;;;;;;5009045;28;20037;-77
2022/07/03 09:05:11;;;;;;;3.83;2.80;;;;;;;;;;5012627;28;20030;-78
2022/07/03 09:07:39;;;;;;;4.03;2.30;;;;;;;;;;4985079;28;20381;-78
2022/07/03 09:10:08;;;;;;;2.83;2.30;;;;;;;;;;4973671;28;20031;-77
2022/07/03 09:12:35;;;;;;;7.20;2.20;;;;;;;;;;4973318;28;20035;-78
2022/07/03 09:15:02;;;;;;;5.50;2.40;;;;;;;;;;4981770;28;20388;-77
2022/07/03 09:17:28;;;;;;;5.07;2.20;;;;;;;;;;4983070;28;20077;-76
2022/07/03 09:19:58;;;;;;;3.35;2.10;;;;;;;;;;4982380;28;20074;-75
2022/07/03 09:22:26;;;;;;;4.38;2.03;;;;;;;;;;4973994;28;20115;-75
2022/07/03 09:24:54;;;;;;;4.90;2.28;;;;;;;;;;4991441;28;20026;-74
2022/07/03 09:27:22;;;;;;;2.33;1.63;;;;;;;;;;4992918;28;20134;-77
2022/07/03 09:29:58;;;;;;;3.15;2.30;;;;;;;;;;4992735;28;20030;-76
2022/07/03 09:32:25;;;;;;;4.20;2.20;;;;;;;;;;4966356;28;20482;-75
2022/07/03 09:35:19;;;;;;;4.10;2.42;;;;;;;;;;4973869;28;20409;-76
2022/07/03 09:37:59;;;;;;;9.07;4.90;;;;;;;;;;4985422;28;20049;-75
2022/07/03 09:40:48;;;;;;;6.57;3.85;;;;;;;;;;4984473;28;20358;-77
2022/07/03 09:43:14;;;;;;;5.90;2.20;;;;;;;;;;4973152;28;20034;-77
2022/07/03 09:46:01;;;;;;;3.88;2.30;;;;;;;;;;4972354;28;20033;-74
2022/07/03 09:48:34;;;;;;;3.95;2.65;;;;;;;;;;4973045;28;20031;-74
2022/07/03 09:51:16;;;;;;;;;;;;;;;;;;4973536;28;20085;-76
2022/07/03 09:54:03;;;;;;;3.63;2.88;;;;;;;;;;4973104;28;19918;-76
2022/07/03 09:56:36;;;;;;;8.55;3.20;;;;;;;;;;4974116;28;20051;-75
2022/07/03 09:59:13;;;;;;;5.68;4.10;;;;;;;;;;4991888;28;20384;-78
2022/07/03 10:01:41;;;;;;;5.88;4.50;;;;;;;;;;4992605;28;20446;-75
2022/07/03 10:04:10;;;;;;;3.38;2.40;;;;;;;;;;4992388;28;20029;-77
2022/07/03 10:07:05;;;;;;;3.80;1.90;;;;;;;;;;4992261;28;20054;-77
2022/07/03 10:09:33;;;;;;;4.18;2.50;;;;;;;;;;4978822;28;20117;-77
2022/07/03 10:12:00;;;;;;;3.58;1.90;;;;;;;;;;4972807;28;20078;-77
2022/07/03 10:14:31;;;;;;;4.82;1.98;;;;;;;;;;4973328;28;20046;-76
2022/07/03 10:16:58;;;;;;;5.10;2.40;;;;;;;;;;4973199;28;20112;-74
2022/07/03 10:19:28;;;;;;;5.40;3.80;;;;;;;;;;4973038;28;20027;-74
2022/07/03 10:22:02;;;;;;;3.92;1.92;;;;;;;;;;4973285;28;20046;-76
2022/07/03 10:24:30;;;;;;;4.03;2.40;;;;;;;;;;4993378;28;20432;-75
2022/07/03 10:26:57;;;;;;;4.85;2.72;;;;;;;;;;4992197;28;20031;-75
2022/07/03 10:29:26;;;;;;;6.35;2.40;;;;;;;;;;4985533;28;20133;-75
2022/07/03 10:31:52;;;;;;;6.18;2.03;;;;;;;;;;4995830;28;20106;-76
2022/07/03 10:34:21;;;;;;;3.28;2.30;;;;;;;;;;4988674;28;20034;-78
2022/07/03 10:36:51;;;;;;;5.32;2.28;;;;;;;;;;4990095;28;20413;-75
2022/07/03 10:39:40;;;;;;;3.03;2.22;;;;;;;;;;4989017;28;20038;-75
2022/07/03 10:45:15;;;;;;;2.80;2.17;;;;;;;;;;4948170;29;20114;-77
2022/07/03 10:47:50;;;;;;;4.28;2.40;;;;;;;;;;4940361;29;20503;-75
2022/07/03 10:50:19;;;;;;;3.50;2.30;;;;;;;;;;4965878;28;20065;-75
2022/07/03 10:52:45;;;;;;;6.30;2.42;;;;;;;;;;4986075;28;20054;-77
2022/07/03 10:55:13;;;;;;;4.28;2.25;;;;;;;;;;4995097;28;20400;-75
2022/07/03 10:57:40;;;;;;;5.72;2.00;;;;;;;;;;4994834;28;20048;-74
2022/07/03 11:00:08;;;;;;;3.65;2.50;;;;;;;;;;4994694;28;20453;-76
2022/07/03 11:02:33;;;;;;;4.55;2.55;;;;;;;;;;4987283;28;20054;-74
2022/07/03 11:04:59;;;;;;;2.70;2.00;;;;;;;;;;4987624;28;20477;-78
2022/07/03 11:07:25;;;;;;;3.72;2.50;;;;;;;;;;4974420;28;20034;-76
2022/07/03 11:10:12;;;;;;;2.70;2.00;;;;;;;;;;4973991;28;20089;-77
2022/07/03 11:12:57;;;;;;;2.53;2.13;;;;;;;;;;4973287;28;20042;-76
2022/07/03 11:15:34;;;;;;;3.15;2.28;;;;;;;;;;4973576;28;20389;-76
2022/07/03 11:18:11;;;;;;;10.68;8.13;;;;;;;;;;4973648;28;20034;-76
2022/07/03 11:20:43;;;;;;;5.63;4.57;;;;;;;;;;4973915;28;20030;-77
2022/07/03 11:23:09;;;;;;;3.47;2.50;;;;;;;;;;4974196;28;20076;-73
2022/07/03 11:25:46;;;;;;;5.70;2.80;;;;;;;;;;4974696;28;20722;-74
2022/07/03 11:28:30;;;;;;;4.07;2.38;;;;;;;;;;4975041;28;20042;-75
2022/07/03 11:31:13;;;;;;;3.22;2.20;;;;;;;;;;4978393;28;20026;-74
2022/07/03 11:33:42;;;;;;;6.15;4.30;;;;;;;;;;4993631;28;20038;-72
2022/07/03 11:36:22;;;;;;;3.20;2.33;;;;;;;;;;4993933;28;20477;-77
2022/07/03 11:38:52;;;;;;;3.90;2.40;;;;;;;;;;4994392;28;20069;-73
2022/07/03 11:41:18;;;;;;;3.10;2.50;;;;;;;;;;4994791;28;20030;-76
2022/07/03 11:43:55;;;;;;;5.80;2.90;;;;;;;;;;4994654;28;20026;-75
2022/07/03 11:46:22;;;;;;;3.17;2.25;;;;;;;;;;4994601;28;20560;-75
2022/07/03 11:48:48;;;;;;;4.22;2.20;;;;;;;;;;4994744;28;20080;-76
2022/07/03 11:51:14;;;;;;;4.28;3.17;;;;;;;;;;4994695;28;20022;-75
2022/07/03 11:53:40;;;;;;;3.85;2.20;;;;;;;;;;4994608;28;20026;-78
2022/07/03 11:56:09;;;;;;;3.95;2.63;;;;;;;;;;4994477;28;20038;-76
2022/07/03 11:58:46;;;;;;;4.35;2.22;;;;;;;;;;4994688;28;20084;-77
2022/07/03 12:01:22;;;;;;;3.97;2.50;;;;;;;;;;4994671;28;20436;-74
2022/07/03 12:03:49;;;;;;;3.90;2.47;;;;;;;;;;4994336;28;20040;-78
2022/07/03 12:06:18;;;;;;;4.30;3.25;;;;;;;;;;4976764;28;20026;-77
2022/07/03 12:08:47;;;;;;;4.25;2.97;;;;;;;;;;4994083;28;20146;-74
2022/07/03 12:11:15;;;;;;;3.33;2.25;;;;;;;;;;4993917;28;20022;-71
2022/07/03 12:13:42;;;;;;;3.72;2.30;;;;;;;;;;4993790;28;20434;-76
2022/07/03 12:16:13;;;;;;;4.65;2.35;;;;;;;;;;4976943;28;20022;-76
2022/07/03 12:18:47;;;;;;;2.67;2.20;;;;;;;;;;4994066;28;20112;-77
2022/07/03 12:21:18;;;;;;;5.07;2.40;;;;;;;;;;4994287;28;20026;-76
2022/07/03 12:23:50;;;;;;;4.05;2.30;;;;;;;;;;4993915;28;20539;-75
2022/07/03 12:26:34;;;;;;;3.63;2.17;;;;;;;;;;4995470;28;20384;-76
2022/07/03 12:29:03;;;;;;;4.25;2.20;;;;;;;;;;4995734;28;20381;-73
2022/07/03 12:31:30;;;;;;;4.60;2.10;;;;;;;;;;4993876;28;20088;-75
2022/07/03 12:34:00;;;;;;;3.42;2.30;;;;;;;;;;4993919;28;20023;-75
2022/07/03 12:36:27;;;;;;;3.17;2.47;;;;;;;;;;4994022;28;20030;-73
2022/07/03 12:38:55;;;;;;;3.55;2.28;;;;;;;;;;4993961;28;20023;-74
2022/07/03 12:41:23;;;;;;;4.93;2.10;;;;;;;;;;4993802;28;20048;-75
2022/07/03 12:43:50;;;;;;;7.03;2.38;;;;;;;;;;4993703;28;20097;-74
2022/07/03 12:46:24;;;;;;;2.70;2.10;;;;;;;;;;4993389;28;20034;-73
2022/07/03 12:48:52;;;;;;;3.10;2.22;;;;;;;;;;4993675;28;20113;-75
2022/07/03 12:51:48;;;;;;;3.58;2.28;;;;;;;;;;4993666;28;20427;-74
2022/07/03 12:54:21;;;;;;;6.38;2.83;;;;;;;;;;4993698;28;20042;-74
2022/07/03 13:00:12;;;;;;;4.45;2.20;;;;;;;;;;4933510;29;20063;-74
2022/07/03 13:02:40;;;;;;;5.47;2.30;;;;;;;;;;4983090;28;20504;-74
2022/07/03 13:05:20;;;;;;;3.80;2.30;;;;;;;;;;4993513;28;20027;-75
2022/07/03 13:07:49;;;;;;;3.65;2.15;;;;;;;;;;4993468;28;20365;-76
2022/07/03 13:10:16;;;;;;;3.83;2.10;;;;;;;;;;4993421;28;20050;-75
2022/07/03 13:12:56;;;;;;;2.60;2.10;;;;;;;;;;4993273;28;20030;-74
2022/07/03 13:15:27;;;;;;;3.13;2.08;;;;;;;;;;4993473;28;20404;-77
2022/07/03 13:17:53;;;;;;;3.42;2.40;;;;;;;;;;4993033;28;20042;-73
2022/07/03 13:20:24;;;;;;;5.25;2.28;;;;;;;;;;4993016;28;20022;-73
2022/07/03 13:22:54;;;;;;;4.18;2.20;;;;;;;;;;4993441;28;20035;-72
2022/07/03 13:25:20;;;;;;;5.20;2.20;;;;;;;;;;4993405;28;20045;-77
2022/07/03 13:27:47;;;;;;;3.15;2.28;;;;;;;;;;4993258;28;20022;-74
2022/07/03 13:30:15;;;;;;;4.22;2.10;;;;;;;;;;4993232;28;20054;-75
2022/07/03 13:32:41;;;;;;;2.88;2.03;;;;;;;;;;4992816;28;20431;-76
2022/07/03 13:35:07;;;;;;;3.97;2.10;;;;;;;;;;4992917;28;20069;-74
2022/07/03 13:37:33;;;;;;;3.85;2.25;;;;;;;;;;4993048;28;20061;-73
2022/07/03 13:40:01;;;;;;;2.80;1.92;;;;;;;;;;4993005;28;20121;-73
2022/07/03 13:42:27;;;;;;;3.05;1.90;;;;;;;;;;4993093;28;20030;-73
2022/07/03 13:44:52;;;;;;;2.70;1.90;;;;;;;;;;4993118;28;20034;-74
2022/07/03 13:47:18;;;;;;;2.80;2.00;;;;;;;;;;4993110;28;20333;-73
2022/07/03 13:49:44;;;;;;;3.47;2.05;;;;;;;;;;4993005;28;20477;-76
2022/07/03 13:52:10;;;;;;;5.10;1.67;;;;;;;;;;4992976;28;20026;-75
2022/07/03 13:54:36;;;;;;;3.15;2.00;;;;;;;;;;4993040;28;20038;-77
2022/07/03 13:57:03;;;;;;;5.03;2.05;;;;;;;;;;4992793;28;20114;-73
2022/07/03 13:59:32;;;;;;;3.85;2.10;;;;;;;;;;4994400;28;20065;-74
2022/07/03 14:01:58;;;;;;;2.42;2.00;;;;;;;;;;4996878;28;20428;-74
2022/07/03 14:04:24;;;;;;;3.63;2.17;;;;;;;;;;4962958;28;20038;-74
2022/07/03 14:06:50;;;;;;;5.82;2.28;;;;;;;;;;4996536;28;20472;-73
2022/07/03 14:09:16;;;;;;;3.38;1.92;;;;;;;;;;4996299;28;20038;-73
2022/07/03 14:11:42;;;;;;;3.83;1.80;;;;;;;;;;4996327;28;20030;-74
2022/07/03 14:14:08;;;;;;;2.95;1.90;;;;;;;;;;4996336;28;20030;-73
2022/07/03 14:16:34;;;;;;;5.22;1.70;;;;;;;;;;4996863;28;20061;-76
2022/07/03 14:19:03;;;;;;;3.03;1.63;;;;;;;;;;4997094;28;20034;-72
2022/07/03 14:21:29;;;;;;;2.78;1.80;;;;;;;;;;4996488;28;20388;-73
2022/07/03 14:23:55;;;;;;;2.47;1.70;;;;;;;;;;4996238;28;20038;-74
2022/07/03 14:32:28;;;;;;;4.93;1.90;;;;;;;;;;4996268;28;20027;-73
2022/07/03 14:32:31;;;;;;;2.42;1.90;;;;;;;;;;4996325;28;20034;-73
2022/07/03 14:34:49;;;;;;;2.70;1.98;;;;;;;;;;4994022;28;20061;-73
2022/07/03 14:37:18;;;;;;;4.85;2.08;;;;;;;;;;4996242;28;20484;-74
2022/07/03 14:39:45;;;;;;;4.40;2.13;;;;;;;;;;4996183;28;20507;-74
2022/07/03 14:42:11;;;;;;;2.63;2.10;;;;;;;;;;4996121;28;20027;-74
2022/07/03 14:44:37;;;;;;;3.38;2.25;;;;;;;;;;4995613;28;20034;-74
2022/07/03 14:47:03;;;;;;;3.58;2.00;;;;;;;;;;4995724;28;20038;-73
2022/07/03 14:49:28;;;;;;;3.22;1.85;;;;;;;;;;4996250;28;20118;-72
2022/07/03 14:51:54;;;;;;;3.33;2.05;;;;;;;;;;4995990;28;20117;-75
2022/07/03 14:54:20;;;;;;;3.45;1.88;;;;;;;;;;4995851;28;20402;-75
2022/07/03 14:56:58;;;;;;;2.80;2.05;;;;;;;;;;4995653;28;20038;-76
2022/07/03 15:00:05;;;;;;;4.13;1.80;;;;;;;;;;4995633;28;20479;-75
2022/07/03 15:03:04;;;;;;;3.35;1.80;;;;;;;;;;4995611;28;20113;-74
2022/07/03 15:05:31;;;;;;;6.72;1.85;;;;;;;;;;4995468;28;20062;-73
2022/07/03 15:08:05;;;;;;;2.83;1.90;;;;;;;;;;4995721;28;20054;-75
2022/07/03 15:10:35;;;;;;;2.45;2.10;;;;;;;;;;4995557;28;20089;-75
2022/07/03 15:13:03;;;;;;;4.78;1.98;;;;;;;;;;4978156;28;20405;-75
2022/07/03 15:15:31;;;;;;;2.85;1.90;;;;;;;;;;4995629;28;20473;-73
2022/07/03 15:17:59;;;;;;;2.78;2.00;;;;;;;;;;4995522;28;20034;-74